sensor_id;sensor_type;location;lat;lon;timestamp;pressure;altitude;pressure_sealevel;temperature;humidity
74905;BME280;63465;50.862;6.220;2022-09-28T00:00:29;97947.84;;;8.12;80.91
74905;BME280;63465;50.862;6.220;2022-09-28T00:02:54;97942.78;;;8.09;81.17
74905;BME280;63465;50.862;6.220;2022-09-28T00:05:23;97942.53;;;7.99;80.78
74905;BME280;63465;50.862;6.220;2022-09-28T00:07:54;97939.97;;;7.84;81.86
74905;BME280;63465;50.862;6.220;2022-09-28T00:10:21;97938.38;;;7.82;82.09
74905;BME280;63465;50.862;6.220;2022-09-28T00:12:50;97934.00;;;8.08;80.66
74905;BME280;63465;50.862;6.220;2022-09-28T00:15:16;97938.97;;;8.13;80.47
74905;BME280;63465;50.862;6.220;2022-09-28T00:17:42;97928.97;;;8.18;82.62
74905;BME280;63465;50.862;6.220;2022-09-28T00:20:11;97920.97;;;8.58;79.26
74905;BME280;63465;50.862;6.220;2022-09-28T00:22:37;97921.34;;;8.39;79.11
74905;BME280;63465;50.862;6.220;2022-09-28T00:25:04;97922.94;;;8.29;79.82
74905;BME280;63465;50.862;6.220;2022-09-28T00:27:30;97921.03;;;8.18;80.30
74905;BME280;63465;50.862;6.220;2022-09-28T00:29:56;97914.16;;;8.15;80.87
74905;BME280;63465;50.862;6.220;2022-09-28T00:32:22;97918.44;;;7.91;81.54
74905;BME280;63465;50.862;6.220;2022-09-28T00:34:50;97923.84;;;8.02;81.41
74905;BME280;63465;50.862;6.220;2022-09-28T00:37:16;97909.81;;;8.14;81.77
74905;BME280;63465;50.862;6.220;2022-09-28T00:39:43;97913.31;;;8.40;80.88
74905;BME280;63465;50.862;6.220;2022-09-28T00:44:41;97913.13;;;8.82;77.99
74905;BME280;63465;50.862;6.220;2022-09-28T00:55:16;97916.78;;;8.15;83.20
74905;BME280;63465;50.862;6.220;2022-09-28T00:57:45;97920.19;;;8.30;82.56
74905;BME280;63465;50.862;6.220;2022-09-28T01:00:13;97913.31;;;8.15;83.24
74905;BME280;63465;50.862;6.220;2022-09-28T01:02:39;97914.78;;;8.19;82.15
74905;BME280;63465;50.862;6.220;2022-09-28T01:05:05;97920.25;;;8.16;82.91
74905;BME280;63465;50.862;6.220;2022-09-28T01:07:33;97932.53;;;8.30;81.57
74905;BME280;63465;50.862;6.220;2022-09-28T01:09:59;97912.81;;;8.61;82.58
74905;BME280;63465;50.862;6.220;2022-09-28T01:12:25;97923.91;;;8.66;81.33
74905;BME280;63465;50.862;6.220;2022-09-28T01:14:51;97920.41;;;8.40;82.68
74905;BME280;63465;50.862;6.220;2022-09-28T01:17:45;97929.03;;;8.03;82.83
74905;BME280;63465;50.862;6.220;2022-09-28T01:20:41;97930.41;;;7.96;83.20
74905;BME280;63465;50.862;6.220;2022-09-28T01:25:54;97926.06;;;8.08;82.38
74905;BME280;63465;50.862;6.220;2022-09-28T01:28:27;97918.59;;;8.15;82.84
74905;BME280;63465;50.862;6.220;2022-09-28T01:31:07;97922.16;;;8.01;82.98
74905;BME280;63465;50.862;6.220;2022-09-28T01:33:41;97913.06;;;8.05;82.46
74905;BME280;63465;50.862;6.220;2022-09-28T01:36:21;97926.97;;;8.60;81.82
74905;BME280;63465;50.862;6.220;2022-09-28T01:38:52;97916.44;;;7.94;83.46
74905;BME280;63465;50.862;6.220;2022-09-28T01:41:21;97913.91;;;7.93;83.68
74905;BME280;63465;50.862;6.220;2022-09-28T01:43:54;97917.63;;;8.16;82.62
74905;BME280;63465;50.862;6.220;2022-09-28T01:46:23;97909.19;;;8.11;82.66
74905;BME280;63465;50.862;6.220;2022-09-28T01:48:58;97908.50;;;7.94;83.11
74905;BME280;63465;50.862;6.220;2022-09-28T01:51:33;97912.53;;;8.00;83.18
74905;BME280;63465;50.862;6.220;2022-09-28T01:54:05;97914.97;;;8.16;82.60
74905;BME280;63465;50.862;6.220;2022-09-28T01:56:41;97915.44;;;8.48;81.76
74905;BME280;63465;50.862;6.220;2022-09-28T01:59:14;97915.09;;;8.01;84.00
74905;BME280;63465;50.862;6.220;2022-09-28T02:04:32;97910.53;;;7.91;83.22
74905;BME280;63465;50.862;6.220;2022-09-28T02:07:07;97911.72;;;8.12;83.10
74905;BME280;63465;50.862;6.220;2022-09-28T02:09:50;97913.41;;;7.73;84.11
74905;BME280;63465;50.862;6.220;2022-09-28T02:12:24;97913.19;;;7.63;84.75
74905;BME280;63465;50.862;6.220;2022-09-28T02:14:54;97910.56;;;7.63;84.74
74905;BME280;63465;50.862;6.220;2022-09-28T02:17:23;97915.66;;;7.79;84.67
74905;BME280;63465;50.862;6.220;2022-09-28T02:19:49;97916.47;;;7.67;84.58
74905;BME280;63465;50.862;6.220;2022-09-28T02:22:40;97919.50;;;7.61;84.99
74905;BME280;63465;50.862;6.220;2022-09-28T02:30:17;97909.00;;;7.74;84.50
74905;BME280;63465;50.862;6.220;2022-09-28T02:32:45;97918.00;;;7.84;84.11
74905;BME280;63465;50.862;6.220;2022-09-28T02:35:13;97906.47;;;7.85;84.54
74905;BME280;63465;50.862;6.220;2022-09-28T02:37:39;97911.25;;;7.93;83.67
74905;BME280;63465;50.862;6.220;2022-09-28T02:40:28;97916.78;;;8.02;83.66
74905;BME280;63465;50.862;6.220;2022-09-28T02:45:49;97920.47;;;8.00;83.77
74905;BME280;63465;50.862;6.220;2022-09-28T02:48:57;97918.44;;;8.03;83.24
74905;BME280;63465;50.862;6.220;2022-09-28T02:51:52;97917.09;;;7.98;83.18
74905;BME280;63465;50.862;6.220;2022-09-28T02:57:23;97926.97;;;7.81;84.43
74905;BME280;63465;50.862;6.220;2022-09-28T03:05:28;97924.50;;;8.18;82.93
74905;BME280;63465;50.862;6.220;2022-09-28T03:07:59;97921.72;;;7.94;83.95
74905;BME280;63465;50.862;6.220;2022-09-28T03:10:39;97927.88;;;8.20;83.15
74905;BME280;63465;50.862;6.220;2022-09-28T03:13:08;97924.91;;;7.99;84.01
74905;BME280;63465;50.862;6.220;2022-09-28T03:15:35;97925.91;;;7.84;84.60
74905;BME280;63465;50.862;6.220;2022-09-28T03:18:01;97927.56;;;7.99;83.44
74905;BME280;63465;50.862;6.220;2022-09-28T03:20:28;97928.19;;;8.03;83.45
74905;BME280;63465;50.862;6.220;2022-09-28T03:22:55;97932.13;;;8.10;83.04
74905;BME280;63465;50.862;6.220;2022-09-28T03:25:20;97930.16;;;7.86;83.85
74905;BME280;63465;50.862;6.220;2022-09-28T03:27:46;97933.13;;;8.61;82.73
74905;BME280;63465;50.862;6.220;2022-09-28T03:30:15;97935.59;;;7.98;82.98
74905;BME280;63465;50.862;6.220;2022-09-28T03:32:43;97940.28;;;7.80;84.21
74905;BME280;63465;50.862;6.220;2022-09-28T03:35:09;97938.78;;;7.76;83.93
74905;BME280;63465;50.862;6.220;2022-09-28T03:37:35;97934.44;;;7.75;84.08
74905;BME280;63465;50.862;6.220;2022-09-28T03:40:01;97931.38;;;7.68;84.61
74905;BME280;63465;50.862;6.220;2022-09-28T03:42:27;97921.81;;;7.93;84.87
74905;BME280;63465;50.862;6.220;2022-09-28T03:44:53;97929.88;;;8.04;82.66
74905;BME280;63465;50.862;6.220;2022-09-28T03:47:19;97932.88;;;7.72;83.97
74905;BME280;63465;50.862;6.220;2022-09-28T03:49:44;97930.03;;;7.75;83.75
74905;BME280;63465;50.862;6.220;2022-09-28T03:52:11;97933.66;;;7.60;84.85
74905;BME280;63465;50.862;6.220;2022-09-28T03:54:37;97925.97;;;7.97;82.74
74905;BME280;63465;50.862;6.220;2022-09-28T03:57:04;97924.59;;;7.64;84.37
74905;BME280;63465;50.862;6.220;2022-09-28T03:59:29;97931.56;;;7.65;84.20
74905;BME280;63465;50.862;6.220;2022-09-28T04:01:55;97928.63;;;7.70;84.38
74905;BME280;63465;50.862;6.220;2022-09-28T04:04:21;97936.25;;;7.74;83.98
74905;BME280;63465;50.862;6.220;2022-09-28T04:06:46;97940.41;;;7.91;83.43
74905;BME280;63465;50.862;6.220;2022-09-28T04:09:12;97942.22;;;8.03;82.83
74905;BME280;63465;50.862;6.220;2022-09-28T04:11:37;97938.56;;;7.66;84.04
74905;BME280;63465;50.862;6.220;2022-09-28T04:14:03;97942.47;;;7.73;83.75
74905;BME280;63465;50.862;6.220;2022-09-28T04:16:29;97936.25;;;8.27;84.88
74905;BME280;63465;50.862;6.220;2022-09-28T04:19:07;97944.03;;;8.03;82.71
74905;BME280;63465;50.862;6.220;2022-09-28T04:21:52;97937.41;;;8.36;81.32
74905;BME280;63465;50.862;6.220;2022-09-28T04:24:18;97943.81;;;7.66;83.39
74905;BME280;63465;50.862;6.220;2022-09-28T04:26:44;97936.94;;;7.63;83.51
74905;BME280;63465;50.862;6.220;2022-09-28T04:29:11;97939.28;;;7.68;83.42
74905;BME280;63465;50.862;6.220;2022-09-28T04:31:51;97947.06;;;7.57;83.45
74905;BME280;63465;50.862;6.220;2022-09-28T04:34:20;97943.25;;;7.88;83.48
74905;BME280;63465;50.862;6.220;2022-09-28T04:36:47;97944.44;;;7.57;83.77
74905;BME280;63465;50.862;6.220;2022-09-28T04:39:15;97948.94;;;7.82;84.88
74905;BME280;63465;50.862;6.220;2022-09-28T04:41:46;97950.34;;;7.60;84.47
74905;BME280;63465;50.862;6.220;2022-09-28T04:44:12;97951.47;;;7.29;84.48
74905;BME280;63465;50.862;6.220;2022-09-28T04:46:37;97958.44;;;7.30;84.26
74905;BME280;63465;50.862;6.220;2022-09-28T04:49:23;97957.31;;;7.61;83.17
74905;BME280;63465;50.862;6.220;2022-09-28T04:51:51;97955.00;;;7.57;84.57
74905;BME280;63465;50.862;6.220;2022-09-28T04:54:17;97955.75;;;7.72;83.33
74905;BME280;63465;50.862;6.220;2022-09-28T04:56:43;97953.34;;;7.41;83.74
74905;BME280;63465;50.862;6.220;2022-09-28T04:59:09;97952.81;;;7.76;84.05
74905;BME280;63465;50.862;6.220;2022-09-28T05:01:35;97951.63;;;7.95;83.02
74905;BME280;63465;50.862;6.220;2022-09-28T05:04:20;97950.44;;;7.59;84.09
74905;BME280;63465;50.862;6.220;2022-09-28T05:06:55;97948.59;;;8.14;82.36
74905;BME280;63465;50.862;6.220;2022-09-28T05:09:22;97948.81;;;7.43;84.26
74905;BME280;63465;50.862;6.220;2022-09-28T05:11:49;97953.25;;;8.10;82.71
74905;BME280;63465;50.862;6.220;2022-09-28T05:14:20;97955.69;;;8.13;80.40
74905;BME280;63465;50.862;6.220;2022-09-28T05:16:50;97962.63;;;7.74;83.85
74905;BME280;63465;50.862;6.220;2022-09-28T05:19:24;97961.91;;;7.72;82.71
74905;BME280;63465;50.862;6.220;2022-09-28T05:21:50;97960.66;;;7.50;83.42
74905;BME280;63465;50.862;6.220;2022-09-28T05:24:16;97960.00;;;8.14;82.96
74905;BME280;63465;50.862;6.220;2022-09-28T05:26:45;97955.63;;;7.88;83.80
74905;BME280;63465;50.862;6.220;2022-09-28T05:29:11;97953.22;;;7.70;82.45
74905;BME280;63465;50.862;6.220;2022-09-28T05:31:55;97965.75;;;7.54;82.81
74905;BME280;63465;50.862;6.220;2022-09-28T05:34:43;97959.69;;;7.52;83.68
74905;BME280;63465;50.862;6.220;2022-09-28T05:37:14;97965.16;;;7.63;82.77
74905;BME280;63465;50.862;6.220;2022-09-28T05:39:39;97957.53;;;7.58;83.85
74905;BME280;63465;50.862;6.220;2022-09-28T05:42:05;97956.47;;;7.61;83.13
74905;BME280;63465;50.862;6.220;2022-09-28T05:44:32;97970.94;;;7.41;83.52
74905;BME280;63465;50.862;6.220;2022-09-28T05:46:58;97961.25;;;7.41;83.86
74905;BME280;63465;50.862;6.220;2022-09-28T05:49:23;97958.13;;;7.49;83.33
74905;BME280;63465;50.862;6.220;2022-09-28T05:51:49;97960.66;;;7.50;83.97
74905;BME280;63465;50.862;6.220;2022-09-28T05:54:14;97971.41;;;7.47;83.94
74905;BME280;63465;50.862;6.220;2022-09-28T05:56:43;97973.66;;;7.54;83.96
74905;BME280;63465;50.862;6.220;2022-09-28T05:59:09;97971.47;;;7.60;83.62
74905;BME280;63465;50.862;6.220;2022-09-28T06:01:36;97970.97;;;7.68;83.20
74905;BME280;63465;50.862;6.220;2022-09-28T06:04:05;97976.94;;;7.57;84.13
74905;BME280;63465;50.862;6.220;2022-09-28T06:06:31;97972.41;;;7.86;83.69
74905;BME280;63465;50.862;6.220;2022-09-28T06:08:56;97968.78;;;8.15;82.14
74905;BME280;63465;50.862;6.220;2022-09-28T06:11:27;97974.63;;;7.93;82.05
74905;BME280;63465;50.862;6.220;2022-09-28T06:13:55;97970.34;;;7.77;83.24
74905;BME280;63465;50.862;6.220;2022-09-28T06:16:20;97976.16;;;7.82;82.80
74905;BME280;63465;50.862;6.220;2022-09-28T06:18:46;97986.34;;;8.29;82.42
74905;BME280;63465;50.862;6.220;2022-09-28T06:21:41;97978.41;;;7.89;82.55
74905;BME280;63465;50.862;6.220;2022-09-28T06:24:07;97977.03;;;7.83;82.88
74905;BME280;63465;50.862;6.220;2022-09-28T06:26:34;97984.75;;;8.13;81.97
74905;BME280;63465;50.862;6.220;2022-09-28T06:29:00;97982.72;;;8.04;82.79
74905;BME280;63465;50.862;6.220;2022-09-28T06:31:26;97995.59;;;8.49;80.72
74905;BME280;63465;50.862;6.220;2022-09-28T06:33:54;97993.38;;;8.02;82.09
74905;BME280;63465;50.862;6.220;2022-09-28T06:36:20;97998.28;;;8.21;81.80
74905;BME280;63465;50.862;6.220;2022-09-28T06:38:47;97995.75;;;8.33;81.99
74905;BME280;63465;50.862;6.220;2022-09-28T06:41:14;97998.28;;;8.74;81.21
74905;BME280;63465;50.862;6.220;2022-09-28T06:43:40;98001.97;;;8.19;81.70
74905;BME280;63465;50.862;6.220;2022-09-28T06:46:28;98003.03;;;8.29;81.17
74905;BME280;63465;50.862;6.220;2022-09-28T06:49:18;98005.22;;;8.75;80.10
74905;BME280;63465;50.862;6.220;2022-09-28T06:52:04;98008.94;;;8.47;81.29
74905;BME280;63465;50.862;6.220;2022-09-28T06:55:03;98001.09;;;8.46;81.20
74905;BME280;63465;50.862;6.220;2022-09-28T06:57:47;98006.97;;;8.36;81.31
74905;BME280;63465;50.862;6.220;2022-09-28T07:00:20;98007.84;;;8.50;81.12
74905;BME280;63465;50.862;6.220;2022-09-28T07:02:46;98014.88;;;8.77;79.02
74905;BME280;63465;50.862;6.220;2022-09-28T07:05:31;98019.50;;;8.60;80.34
74905;BME280;63465;50.862;6.220;2022-09-28T07:08:21;98025.56;;;8.75;79.81
74905;BME280;63465;50.862;6.220;2022-09-28T07:11:20;98028.41;;;8.72;79.06
74905;BME280;63465;50.862;6.220;2022-09-28T07:14:05;98028.19;;;8.75;78.05
74905;BME280;63465;50.862;6.220;2022-09-28T07:16:30;98022.59;;;8.92;79.63
74905;BME280;63465;50.862;6.220;2022-09-28T07:18:56;98025.13;;;9.07;76.10
74905;BME280;63465;50.862;6.220;2022-09-28T07:21:21;98035.41;;;8.73;78.27
74905;BME280;63465;50.862;6.220;2022-09-28T07:23:47;98043.34;;;8.73;78.02
74905;BME280;63465;50.862;6.220;2022-09-28T07:26:22;98045.00;;;9.13;78.65
74905;BME280;63465;50.862;6.220;2022-09-28T07:28:56;98047.22;;;8.67;78.55
74905;BME280;63465;50.862;6.220;2022-09-28T07:31:48;98054.44;;;8.65;78.13
74905;BME280;63465;50.862;6.220;2022-09-28T07:34:19;98047.09;;;9.46;75.85
74905;BME280;63465;50.862;6.220;2022-09-28T07:36:54;98054.81;;;9.49;75.37
74905;BME280;63465;50.862;6.220;2022-09-28T07:39:23;98053.84;;;9.87;73.75
74905;BME280;63465;50.862;6.220;2022-09-28T07:41:49;98054.22;;;9.20;76.04
74905;BME280;63465;50.862;6.220;2022-09-28T07:44:14;98064.50;;;9.12;76.62
74905;BME280;63465;50.862;6.220;2022-09-28T07:46:40;98060.16;;;8.98;76.65
74905;BME280;63465;50.862;6.220;2022-09-28T07:49:14;98056.53;;;8.99;76.52
74905;BME280;63465;50.862;6.220;2022-09-28T07:51:52;98060.47;;;9.06;75.66
74905;BME280;63465;50.862;6.220;2022-09-28T07:54:33;98055.94;;;10.67;76.80
74905;BME280;63465;50.862;6.220;2022-09-28T07:57:30;98067.88;;;9.26;75.19
74905;BME280;63465;50.862;6.220;2022-09-28T08:00:11;98065.34;;;9.75;74.38
74905;BME280;63465;50.862;6.220;2022-09-28T08:02:39;98082.13;;;9.62;73.13
74905;BME280;63465;50.862;6.220;2022-09-28T08:05:05;98077.41;;;9.79;72.82
74905;BME280;63465;50.862;6.220;2022-09-28T08:07:34;98076.09;;;9.85;73.52
74905;BME280;63465;50.862;6.220;2022-09-28T08:10:04;98074.94;;;9.89;72.17
74905;BME280;63465;50.862;6.220;2022-09-28T08:12:55;98079.44;;;11.41;69.70
74905;BME280;63465;50.862;6.220;2022-09-28T08:15:32;98079.91;;;11.13;72.02
74905;BME280;63465;50.862;6.220;2022-09-28T08:18:16;98085.41;;;10.03;70.83
74905;BME280;63465;50.862;6.220;2022-09-28T08:20:42;98090.47;;;10.30;70.18
74905;BME280;63465;50.862;6.220;2022-09-28T08:23:26;98091.78;;;10.49;69.45
74905;BME280;63465;50.862;6.220;2022-09-28T08:25:51;98086.81;;;11.49;66.86
74905;BME280;63465;50.862;6.220;2022-09-28T08:28:20;98088.00;;;11.34;66.95
74905;BME280;63465;50.862;6.220;2022-09-28T08:30:47;98087.53;;;10.70;68.44
74905;BME280;63465;50.862;6.220;2022-09-28T08:33:32;98097.53;;;11.14;67.52
74905;BME280;63465;50.862;6.220;2022-09-28T08:36:17;98095.50;;;10.22;70.61
74905;BME280;63465;50.862;6.220;2022-09-28T08:39:05;98094.31;;;10.02;71.88
74905;BME280;63465;50.862;6.220;2022-09-28T08:42:15;98103.81;;;10.29;69.22
74905;BME280;63465;50.862;6.220;2022-09-28T08:45:11;98100.94;;;10.32;70.15
74905;BME280;63465;50.862;6.220;2022-09-28T08:48:18;98105.78;;;10.51;69.32
74905;BME280;63465;50.862;6.220;2022-09-28T08:56:58;98101.75;;;10.69;68.30
74905;BME280;63465;50.862;6.220;2022-09-28T08:59:51;98097.94;;;13.49;59.43
74905;BME280;63465;50.862;6.220;2022-09-28T09:02:35;98116.22;;;13.11;63.83
74905;BME280;63465;50.862;6.220;2022-09-28T09:05:15;98119.28;;;11.87;64.73
74905;BME280;63465;50.862;6.220;2022-09-28T09:10:50;98127.00;;;11.78;65.92
74905;BME280;63465;50.862;6.220;2022-09-28T09:13:42;98130.63;;;11.66;66.85
74905;BME280;63465;50.862;6.220;2022-09-28T09:22:38;98128.84;;;11.78;65.48
74905;BME280;63465;50.862;6.220;2022-09-28T09:30:19;98124.34;;;15.88;53.17
74905;BME280;63465;50.862;6.220;2022-09-28T09:36:26;98128.06;;;19.51;43.27
74905;BME280;63465;50.862;6.220;2022-09-28T09:39:23;98118.78;;;25.67;30.76
74905;BME280;63465;50.862;6.220;2022-09-28T09:52:10;98137.94;;;17.04;47.07
74905;BME280;63465;50.862;6.220;2022-09-28T09:54:45;98132.34;;;16.98;48.25
74905;BME280;63465;50.862;6.220;2022-09-28T10:00:03;98129.69;;;15.78;49.87
74905;BME280;63465;50.862;6.220;2022-09-28T10:02:50;98130.25;;;15.34;51.65
74905;BME280;63465;50.862;6.220;2022-09-28T10:05:33;98119.19;;;15.00;52.72
74905;BME280;63465;50.862;6.220;2022-09-28T10:08:03;98122.25;;;13.96;54.13
74905;BME280;63465;50.862;6.220;2022-09-28T10:10:33;98130.53;;;15.31;52.29
74905;BME280;63465;50.862;6.220;2022-09-28T10:13:11;98125.06;;;14.55;53.25
74905;BME280;63465;50.862;6.220;2022-09-28T10:15:38;98124.44;;;17.32;47.14
74905;BME280;63465;50.862;6.220;2022-09-28T10:18:14;98122.72;;;15.48;51.04
74905;BME280;63465;50.862;6.220;2022-09-28T10:21:20;98123.41;;;16.89;46.70
74905;BME280;63465;50.862;6.220;2022-09-28T10:23:57;98106.59;;;19.10;41.39
74905;BME280;63465;50.862;6.220;2022-09-28T10:26:31;98104.75;;;18.86;41.34
74905;BME280;63465;50.862;6.220;2022-09-28T10:29:05;98118.00;;;18.87;45.05
74905;BME280;63465;50.862;6.220;2022-09-28T10:34:07;98111.34;;;23.98;32.37
74905;BME280;63465;50.862;6.220;2022-09-28T10:36:45;98117.91;;;25.86;28.88
74905;BME280;63465;50.862;6.220;2022-09-28T10:41:52;98122.22;;;17.27;45.10
74905;BME280;63465;50.862;6.220;2022-09-28T10:44:23;98111.03;;;21.24;36.28
74905;BME280;63465;50.862;6.220;2022-09-28T10:47:00;98114.63;;;20.07;38.72
74905;BME280;63465;50.862;6.220;2022-09-28T10:49:37;98110.44;;;23.28;33.88
74905;BME280;63465;50.862;6.220;2022-09-28T10:52:04;98106.38;;;21.33;36.74
74905;BME280;63465;50.862;6.220;2022-09-28T10:54:36;98109.81;;;17.26;45.85
74905;BME280;63465;50.862;6.220;2022-09-28T10:57:25;98112.66;;;15.69;49.78
74905;BME280;63465;50.862;6.220;2022-09-28T10:59:55;98115.47;;;15.30;51.78
74905;BME280;63465;50.862;6.220;2022-09-28T11:02:43;98121.00;;;14.60;51.19
74905;BME280;63465;50.862;6.220;2022-09-28T11:05:23;98115.50;;;15.11;51.17
74905;BME280;63465;50.862;6.220;2022-09-28T11:07:54;98117.59;;;14.29;51.69
74905;BME280;63465;50.862;6.220;2022-09-28T11:10:28;98114.34;;;25.92;29.40
74905;BME280;63465;50.862;6.220;2022-09-28T11:12:59;98118.19;;;16.69;44.95
74905;BME280;63465;50.862;6.220;2022-09-28T11:15:32;98124.97;;;14.86;51.32
74905;BME280;63465;50.862;6.220;2022-09-28T11:18:26;98123.44;;;13.72;55.22
74905;BME280;63465;50.862;6.220;2022-09-28T11:21:13;98126.22;;;14.72;53.06
74905;BME280;63465;50.862;6.220;2022-09-28T11:24:03;98119.97;;;16.15;49.25
74905;BME280;63465;50.862;6.220;2022-09-28T11:26:38;98116.50;;;21.54;35.92
74905;BME280;63465;50.862;6.220;2022-09-28T11:29:17;98126.75;;;14.46;50.25
74905;BME280;63465;50.862;6.220;2022-09-28T11:31:52;98129.31;;;14.67;51.14
74905;BME280;63465;50.862;6.220;2022-09-28T11:34:22;98125.38;;;14.01;53.03
74905;BME280;63465;50.862;6.220;2022-09-28T11:39:47;98126.22;;;14.82;53.04
74905;BME280;63465;50.862;6.220;2022-09-28T11:48:12;98128.56;;;14.55;50.91
74905;BME280;63465;50.862;6.220;2022-09-28T11:53:26;98127.34;;;17.99;43.94
74905;BME280;63465;50.862;6.220;2022-09-28T11:56:35;98133.06;;;13.95;52.35
74905;BME280;63465;50.862;6.220;2022-09-28T12:01:56;98124.94;;;13.96;54.63
74905;BME280;63465;50.862;6.220;2022-09-28T12:04:35;98134.25;;;13.71;54.17
74905;BME280;63465;50.862;6.220;2022-09-28T12:07:08;98133.63;;;13.58;54.56
74905;BME280;63465;50.862;6.220;2022-09-28T12:09:44;98126.59;;;13.56;54.19
74905;BME280;63465;50.862;6.220;2022-09-28T12:12:22;98137.91;;;13.49;54.24
74905;BME280;63465;50.862;6.220;2022-09-28T12:14:54;98137.25;;;13.56;54.83
74905;BME280;63465;50.862;6.220;2022-09-28T12:17:25;98140.66;;;13.99;53.91
74905;BME280;63465;50.862;6.220;2022-09-28T12:20:00;98135.88;;;13.62;54.68
74905;BME280;63465;50.862;6.220;2022-09-28T12:22:35;98145.47;;;13.44;55.37
74905;BME280;63465;50.862;6.220;2022-09-28T12:25:03;98134.91;;;13.63;54.78
74905;BME280;63465;50.862;6.220;2022-09-28T12:27:44;98144.22;;;13.27;56.05
74905;BME280;63465;50.862;6.220;2022-09-28T12:30:16;98131.34;;;13.53;55.45
74905;BME280;63465;50.862;6.220;2022-09-28T12:32:48;98135.38;;;13.47;55.28
74905;BME280;63465;50.862;6.220;2022-09-28T12:44:16;98135.84;;;13.52;56.88
74905;BME280;63465;50.862;6.220;2022-09-28T12:46:53;98135.59;;;13.55;57.64
74905;BME280;63465;50.862;6.220;2022-09-28T12:49:41;98132.38;;;13.19;57.68
74905;BME280;63465;50.862;6.220;2022-09-28T12:52:44;98127.72;;;13.33;58.13
74905;BME280;63465;50.862;6.220;2022-09-28T12:55:34;98133.97;;;13.22;58.82
74905;BME280;63465;50.862;6.220;2022-09-28T13:19:57;98120.25;;;13.06;59.81
74905;BME280;63465;50.862;6.220;2022-09-28T13:22:49;98127.97;;;13.30;58.68
74905;BME280;63465;50.862;6.220;2022-09-28T13:25:23;98125.84;;;13.45;58.65
74905;BME280;63465;50.862;6.220;2022-09-28T13:27:54;98115.47;;;13.72;57.77
74905;BME280;63465;50.862;6.220;2022-09-28T13:30:20;98119.59;;;13.55;57.98
74905;BME280;63465;50.862;6.220;2022-09-28T13:32:47;98128.19;;;13.38;57.59
74905;BME280;63465;50.862;6.220;2022-09-28T13:35:16;98120.91;;;13.71;57.20
74905;BME280;63465;50.862;6.220;2022-09-28T13:37:46;98122.06;;;13.78;56.96
74905;BME280;63465;50.862;6.220;2022-09-28T13:40:12;98122.09;;;13.88;58.00
74905;BME280;63465;50.862;6.220;2022-09-28T13:53:34;98116.03;;;14.36;55.25
74905;BME280;63465;50.862;6.220;2022-09-28T13:56:29;98111.03;;;13.93;55.10
74905;BME280;63465;50.862;6.220;2022-09-28T13:59:13;98118.06;;;13.94;59.39
74905;BME280;63465;50.862;6.220;2022-09-28T14:04:21;98128.19;;;14.00;58.89
74905;BME280;63465;50.862;6.220;2022-09-28T14:07:09;98115.66;;;13.60;60.65
74905;BME280;63465;50.862;6.220;2022-09-28T14:10:06;98123.09;;;13.56;58.30
74905;BME280;63465;50.862;6.220;2022-09-28T14:14:57;98127.78;;;13.22;61.68
74905;BME280;63465;50.862;6.220;2022-09-28T14:19:53;98126.22;;;12.98;61.39
74905;BME280;63465;50.862;6.220;2022-09-28T14:33:21;98132.63;;;12.74;64.08
74905;BME280;63465;50.862;6.220;2022-09-28T14:35:59;98127.88;;;12.78;63.55
74905;BME280;63465;50.862;6.220;2022-09-28T14:38:44;98129.88;;;12.64;63.25
74905;BME280;63465;50.862;6.220;2022-09-28T14:41:34;98131.19;;;12.70;64.82
74905;BME280;63465;50.862;6.220;2022-09-28T14:44:11;98129.97;;;12.95;63.44
74905;BME280;63465;50.862;6.220;2022-09-28T14:54:18;98167.69;;;12.36;58.60
74905;BME280;63465;50.862;6.220;2022-09-28T14:59:18;98170.41;;;12.13;58.28
74905;BME280;63465;50.862;6.220;2022-09-28T15:01:59;98170.34;;;13.54;62.51
74905;BME280;63465;50.862;6.220;2022-09-28T15:04:29;98182.06;;;11.54;59.60
74905;BME280;63465;50.862;6.220;2022-09-28T15:06:55;98186.91;;;11.71;61.08
74905;BME280;63465;50.862;6.220;2022-09-28T15:09:28;98186.44;;;10.84;65.46
74905;BME280;63465;50.862;6.220;2022-09-28T15:12:23;98186.09;;;10.88;67.22
74905;BME280;63465;50.862;6.220;2022-09-28T15:14:59;98184.69;;;10.96;68.30
74905;BME280;63465;50.862;6.220;2022-09-28T15:17:34;98179.56;;;11.75;67.65
74905;BME280;63465;50.862;6.220;2022-09-28T15:20:29;98181.31;;;10.94;68.50
74905;BME280;63465;50.862;6.220;2022-09-28T15:22:58;98182.47;;;10.54;70.91
74905;BME280;63465;50.862;6.220;2022-09-28T15:25:29;98187.81;;;10.41;71.40
74905;BME280;63465;50.862;6.220;2022-09-28T15:28:12;98180.72;;;10.66;72.00
74905;BME280;63465;50.862;6.220;2022-09-28T15:30:41;98177.44;;;10.62;72.09
74905;BME280;63465;50.862;6.220;2022-09-28T15:33:25;98179.66;;;10.31;72.66
74905;BME280;63465;50.862;6.220;2022-09-28T15:36:17;98179.00;;;10.41;72.04
74905;BME280;63465;50.862;6.220;2022-09-28T15:39:11;98182.09;;;10.34;72.76
74905;BME280;63465;50.862;6.220;2022-09-28T15:41:38;98179.75;;;10.30;73.21
74905;BME280;63465;50.862;6.220;2022-09-28T15:47:22;98183.47;;;10.27;74.16
74905;BME280;63465;50.862;6.220;2022-09-28T15:49:57;98188.88;;;10.26;74.59
74905;BME280;63465;50.862;6.220;2022-09-28T15:52:41;98190.44;;;10.41;75.02
74905;BME280;63465;50.862;6.220;2022-09-28T15:55:21;98185.41;;;10.62;74.82
74905;BME280;63465;50.862;6.220;2022-09-28T15:57:48;98192.06;;;10.92;73.30
74905;BME280;63465;50.862;6.220;2022-09-28T16:02:57;98196.91;;;11.45;72.87
74905;BME280;63465;50.862;6.220;2022-09-28T16:05:43;98209.13;;;11.12;72.84
74905;BME280;63465;50.862;6.220;2022-09-28T16:10:55;98193.28;;;11.57;72.09
74905;BME280;63465;50.862;6.220;2022-09-28T16:13:22;98199.75;;;12.00;71.50
74905;BME280;63465;50.862;6.220;2022-09-28T16:15:58;98197.81;;;11.21;72.65
74905;BME280;63465;50.862;6.220;2022-09-28T16:18:29;98196.69;;;11.71;74.29
74905;BME280;63465;50.862;6.220;2022-09-28T16:21:07;98199.91;;;11.29;73.44
74905;BME280;63465;50.862;6.220;2022-09-28T16:23:49;98197.25;;;11.29;72.93
74905;BME280;63465;50.862;6.220;2022-09-28T16:26:28;98201.47;;;11.32;73.89
74905;BME280;63465;50.862;6.220;2022-09-28T16:28:56;98202.44;;;10.95;74.37
74905;BME280;63465;50.862;6.220;2022-09-28T16:31:29;98209.06;;;11.01;74.07